createdAt,value
2023-02-02T00:00:54.822Z,86.00
2023-02-02T00:01:54.808Z,86.21
2023-02-02T00:02:54.875Z,86.52
2023-02-02T00:03:54.800Z,86.62
2023-02-02T00:04:54.743Z,86.21
2023-02-02T00:05:54.744Z,86.04
2023-02-02T00:06:54.764Z,86.10
2023-02-02T00:07:54.730Z,86.31
2023-02-02T00:08:54.858Z,85.79
2023-02-02T00:09:54.745Z,86.10
2023-02-02T00:10:54.703Z,86.00
2023-02-02T00:11:54.744Z,85.58
2023-02-02T00:12:54.681Z,85.79
2023-02-02T00:13:54.673Z,86.15
2023-02-02T00:14:54.683Z,85.73
2023-02-02T00:15:54.729Z,85.06
2023-02-02T00:16:54.709Z,85.06
2023-02-02T00:17:54.699Z,85.48
2023-02-02T00:18:54.672Z,84.75
2023-02-02T00:19:54.675Z,84.55
2023-02-02T00:20:54.637Z,84.34
2023-02-02T00:21:54.615Z,82.79
2023-02-02T00:22:54.625Z,82.06
2023-02-02T00:23:54.719Z,81.65
2023-02-02T00:24:54.647Z,80.57
2023-02-02T00:25:54.678Z,80.05
2023-02-02T00:26:54.696Z,80.30
2023-02-02T00:27:54.585Z,80.16
2023-02-02T00:28:54.595Z,81.20
2023-02-02T00:29:54.603Z,81.44
2023-02-02T00:30:54.638Z,80.68
2023-02-02T00:31:54.674Z,80.36
2023-02-02T00:32:54.546Z,79.44
2023-02-02T00:33:54.579Z,79.85
2023-02-02T00:34:54.599Z,79.64
2023-02-02T00:35:54.607Z,79.02
2023-02-02T00:36:54.540Z,78.26
2023-02-02T00:37:54.523Z,78.61
2023-02-02T00:38:54.534Z,78.61
2023-02-02T00:39:54.565Z,78.67
2023-02-02T00:40:54.512Z,79.30
2023-02-02T00:41:54.495Z,78.36
2023-02-02T00:42:54.523Z,78.61
2023-02-02T00:43:54.541Z,78.57
2023-02-02T00:44:54.491Z,78.26
2023-02-02T00:45:54.527Z,78.40
2023-02-02T00:46:54.483Z,78.78
2023-02-02T00:47:54.451Z,79.64
2023-02-02T00:48:54.447Z,79.64
2023-02-02T00:49:54.480Z,79.54
2023-02-02T00:50:54.445Z,79.44
2023-02-02T00:51:54.459Z,78.50
2023-02-02T00:52:54.461Z,79.54
2023-02-02T00:53:54.452Z,78.61
2023-02-02T00:54:54.437Z,79.02
2023-02-02T00:55:54.429Z,78.50
2023-02-02T00:56:54.383Z,79.74
2023-02-02T00:57:54.508Z,79.95
2023-02-02T00:58:54.438Z,79.74
2023-02-02T00:59:54.408Z,80.16
2023-02-02T01:00:54.420Z,79.85
2023-02-02T01:01:54.431Z,80.51
2023-02-02T01:02:54.357Z,81.20
2023-02-02T01:03:54.380Z,81.65
2023-02-02T01:04:54.353Z,82.03
2023-02-02T01:05:54.405Z,82.17
2023-02-02T01:06:54.381Z,82.89
2023-02-02T01:07:54.338Z,83.20
2023-02-02T01:08:54.341Z,83.83
2023-02-02T01:09:54.310Z,83.62
2023-02-02T01:10:54.347Z,84.13
2023-02-02T01:11:54.353Z,84.44
2023-02-02T01:12:54.314Z,84.23
2023-02-02T01:13:54.289Z,84.23
2023-02-02T01:14:54.329Z,84.55
2023-02-02T01:15:54.292Z,84.65
2023-02-02T01:16:54.284Z,85.06
2023-02-02T01:17:54.347Z,84.75
2023-02-02T01:18:54.292Z,84.51
2023-02-02T01:19:54.264Z,84.51
2023-02-02T01:20:54.229Z,84.55
2023-02-02T01:21:54.245Z,84.51
2023-02-02T01:22:54.308Z,84.65
2023-02-02T01:23:54.234Z,84.75
2023-02-02T01:24:54.221Z,84.72
2023-02-02T01:25:54.249Z,85.17
2023-02-02T01:26:54.259Z,84.41
2023-02-02T01:27:54.204Z,84.65
2023-02-02T01:28:54.216Z,84.75
2023-02-02T01:29:54.232Z,85.27
2023-02-02T01:30:54.231Z,84.75
2023-02-02T01:31:54.232Z,85.17
2023-02-02T01:32:54.174Z,85.06
2023-02-02T01:33:54.177Z,85.27
2023-02-02T01:34:54.215Z,85.48
2023-02-02T01:35:54.153Z,84.86
2023-02-02T01:36:54.159Z,84.23
2023-02-02T01:37:54.177Z,83.93
2023-02-02T01:38:54.140Z,84.34
2023-02-02T01:39:54.162Z,84.03
2023-02-02T01:40:54.122Z,84.55
2023-02-02T01:41:54.177Z,84.03
2023-02-02T01:42:54.092Z,84.55
2023-02-02T01:43:54.104Z,84.41
2023-02-02T01:44:54.110Z,84.41
2023-02-02T01:45:54.142Z,84.55
2023-02-02T01:46:54.089Z,84.03
2023-02-02T01:47:54.085Z,84.03
2023-02-02T01:48:54.151Z,84.23
2023-02-02T01:49:54.126Z,84.44
2023-02-02T01:50:54.049Z,83.93
2023-02-02T01:51:54.043Z,84.13
2023-02-02T01:52:54.039Z,84.44
2023-02-02T01:53:54.041Z,84.13
2023-02-02T01:54:54.091Z,84.55
2023-02-02T01:55:54.082Z,84.75
2023-02-02T01:56:54.056Z,84.09
2023-02-02T01:57:54.016Z,84.41
2023-02-02T01:58:54.002Z,84.51
2023-02-02T01:59:54.045Z,83.99
2023-02-02T02:00:54.008Z,84.51
2023-02-02T02:01:53.992Z,84.30
2023-02-02T02:02:53.973Z,84.75
2023-02-02T02:03:53.991Z,84.72
2023-02-02T02:04:54.013Z,84.41
2023-02-02T02:05:54.048Z,84.51
2023-02-02T02:06:53.971Z,84.09
2023-02-02T02:07:53.969Z,84.09
2023-02-02T02:08:53.962Z,84.41
2023-02-02T02:09:53.929Z,84.30
2023-02-02T02:10:53.955Z,84.09
2023-02-02T02:11:53.958Z,84.41
2023-02-02T02:12:53.928Z,84.51
2023-02-02T02:13:53.919Z,84.82
2023-02-02T02:14:53.916Z,84.61
2023-02-02T02:15:53.923Z,85.13
2023-02-02T02:16:54.019Z,84.92
2023-02-02T02:17:53.897Z,84.72
2023-02-02T02:18:53.899Z,85.13
2023-02-02T02:19:53.895Z,84.92
2023-02-02T02:20:53.861Z,85.34
2023-02-02T02:21:53.932Z,84.88
2023-02-02T02:22:53.836Z,85.24
2023-02-02T02:23:53.933Z,85.75
2023-02-02T02:24:53.871Z,85.75
2023-02-02T02:25:53.843Z,85.44
2023-02-02T02:26:53.917Z,85.96
2023-02-02T02:27:53.873Z,86.33
2023-02-02T02:28:53.892Z,86.54
2023-02-02T02:29:53.798Z,86.33
2023-02-02T02:30:54.894Z,86.33
2023-02-02T02:31:53.911Z,86.54
2023-02-02T02:32:53.778Z,86.65
2023-02-02T02:33:53.819Z,86.44
2023-02-02T02:34:53.805Z,86.47
2023-02-02T02:35:53.770Z,86.47
2023-02-02T02:36:53.835Z,86.33
2023-02-02T02:37:53.778Z,86.65
2023-02-02T02:38:53.778Z,86.44
2023-02-02T02:39:53.787Z,86.54
2023-02-02T02:40:53.731Z,86.54
2023-02-02T02:41:53.747Z,86.44
2023-02-02T02:42:53.777Z,86.54
2023-02-02T02:43:53.717Z,86.33
2023-02-02T02:44:53.726Z,86.33
2023-02-02T02:45:53.804Z,86.33
2023-02-02T02:46:53.687Z,86.17
2023-02-02T02:47:53.713Z,87.20
2023-02-02T02:48:53.691Z,87.27
2023-02-02T02:49:53.724Z,87.41
2023-02-02T02:50:53.666Z,87.41
2023-02-02T02:51:53.689Z,87.62
2023-02-02T02:52:53.678Z,87.93
2023-02-02T02:53:53.726Z,88.03
2023-02-02T02:54:53.697Z,87.72
2023-02-02T02:55:53.713Z,88.03
2023-02-02T02:56:53.653Z,88.24
2023-02-02T02:57:53.650Z,88.24
2023-02-02T02:58:53.630Z,88.24
2023-02-02T02:59:53.630Z,88.13
2023-02-02T03:00:53.640Z,88.45
2023-02-02T03:01:53.674Z,88.55
2023-02-02T03:02:53.685Z,88.45
2023-02-02T03:03:53.622Z,88.55
2023-02-02T03:04:53.666Z,88.65
2023-02-02T03:05:53.653Z,88.45
2023-02-02T03:06:54.627Z,88.45
2023-02-02T03:07:53.641Z,88.45
2023-02-02T03:08:53.589Z,88.18
2023-02-02T03:09:53.572Z,88.96
2023-02-02T03:10:53.627Z,88.90
2023-02-02T03:11:54.566Z,88.69
2023-02-02T03:12:53.542Z,88.96
2023-02-02T03:13:53.528Z,89.42
2023-02-02T03:14:53.603Z,89.11
2023-02-02T03:15:53.595Z,89.07
2023-02-02T03:16:53.523Z,89.21
2023-02-02T03:17:53.519Z,89.11
2023-02-02T03:18:53.502Z,88.90
2023-02-02T03:19:53.565Z,89.00
2023-02-02T03:20:53.544Z,88.86
2023-02-02T03:21:53.541Z,88.79
2023-02-02T03:22:53.486Z,89.11
2023-02-02T03:23:53.491Z,89.31
2023-02-02T03:24:53.475Z,89.62
2023-02-02T03:25:53.447Z,89.83
2023-02-02T03:26:53.509Z,89.94
2023-02-02T03:27:53.464Z,90.56
2023-02-02T03:28:53.490Z,90.04
2023-02-02T03:29:53.451Z,90.04
2023-02-02T03:30:53.533Z,90.04
2023-02-02T03:31:53.470Z,89.94
2023-02-02T03:32:53.442Z,90.10
2023-02-02T03:33:53.505Z,90.56
2023-02-02T03:34:53.431Z,89.73
2023-02-02T03:35:53.421Z,89.42
2023-02-02T03:36:53.431Z,89.62
2023-02-02T03:37:53.479Z,89.67
2023-02-02T03:38:53.455Z,90.44
2023-02-02T03:39:53.876Z,91.27
2023-02-02T03:40:54.395Z,91.27
2023-02-02T03:41:53.431Z,91.93
2023-02-02T03:42:53.405Z,92.45
2023-02-02T03:43:53.354Z,92.35
2023-02-02T03:44:53.407Z,93.43
2023-02-02T03:45:53.383Z,93.84
2023-02-02T03:46:53.356Z,94.26
2023-02-02T03:47:53.397Z,94.67
2023-02-02T03:48:53.348Z,94.78
2023-02-02T03:49:53.344Z,95.23
2023-02-02T03:50:53.302Z,95.19
2023-02-02T03:51:53.409Z,95.40
2023-02-02T03:52:53.327Z,95.23
2023-02-02T03:53:53.340Z,95.44
2023-02-02T03:54:53.270Z,95.65
2023-02-02T03:55:53.390Z,95.71
2023-02-02T03:56:53.266Z,95.40
2023-02-02T03:57:53.383Z,95.19
2023-02-02T03:58:53.303Z,94.78
2023-02-02T03:59:53.311Z,95.23
2023-02-02T04:00:53.254Z,94.88
2023-02-02T04:01:53.333Z,94.98
2023-02-02T04:02:53.267Z,94.88
2023-02-02T04:03:53.223Z,94.84
2023-02-02T04:04:53.240Z,94.46
2023-02-02T04:05:53.227Z,94.63
2023-02-02T04:06:53.227Z,94.63
2023-02-02T04:07:53.213Z,94.42
2023-02-02T04:08:53.212Z,94.21
2023-02-02T04:09:53.242Z,94.01
2023-02-02T04:10:53.180Z,94.42
2023-02-02T04:11:53.202Z,94.01
2023-02-02T04:12:53.182Z,93.65
2023-02-02T04:13:53.180Z,93.80
2023-02-02T04:14:53.205Z,94.01
2023-02-02T04:15:53.169Z,94.01
2023-02-02T04:16:53.215Z,93.80
2023-02-02T04:17:53.135Z,93.90
2023-02-02T04:18:53.215Z,93.90
2023-02-02T04:19:53.173Z,93.90
2023-02-02T04:20:53.151Z,94.21
2023-02-02T04:21:53.097Z,94.01
2023-02-02T04:22:53.168Z,93.90
2023-02-02T04:23:54.143Z,94.21
2023-02-02T04:24:53.122Z,93.70
2023-02-02T04:25:53.096Z,93.80
2023-02-02T04:26:54.127Z,94.01
2023-02-02T04:27:53.123Z,93.90
2023-02-02T04:28:53.103Z,94.01
2023-02-02T04:29:53.088Z,93.90
2023-02-02T04:30:53.117Z,93.70
2023-02-02T04:31:53.090Z,94.21
2023-02-02T04:32:53.037Z,94.42
2023-02-02T04:33:53.094Z,95.15
2023-02-02T04:34:53.045Z,94.78
2023-02-02T04:35:53.008Z,95.71
2023-02-02T04:36:53.032Z,95.29
2023-02-02T04:37:53.034Z,95.71
2023-02-02T04:38:53.035Z,95.61
2023-02-02T04:39:52.996Z,96.23
2023-02-02T04:40:52.990Z,95.87
2023-02-02T04:41:52.987Z,95.36
2023-02-02T04:42:52.957Z,95.04
2023-02-02T04:43:52.989Z,95.77
2023-02-02T04:44:52.950Z,95.15
2023-02-02T04:45:53.066Z,95.15
2023-02-02T04:46:52.935Z,94.84
2023-02-02T04:47:52.975Z,94.58
2023-02-02T04:48:52.948Z,94.58
2023-02-02T04:49:52.950Z,94.73
2023-02-02T04:50:52.983Z,94.37
2023-02-02T04:51:52.916Z,93.96
2023-02-02T04:52:52.906Z,94.17
2023-02-02T04:53:52.917Z,93.96
2023-02-02T04:54:52.912Z,94.32
2023-02-02T04:55:52.908Z,94.21
2023-02-02T04:56:52.955Z,94.17
2023-02-02T04:57:52.904Z,94.32
2023-02-02T04:58:52.886Z,94.53
2023-02-02T04:59:52.884Z,94.42
2023-02-02T05:00:52.996Z,94.94
2023-02-02T05:01:52.863Z,95.67
2023-02-02T05:02:53.870Z,95.67
2023-02-02T05:03:52.821Z,95.67
2023-02-02T05:04:52.825Z,95.46
2023-02-02T05:05:52.851Z,95.56
2023-02-02T05:06:52.840Z,96.29
2023-02-02T05:07:52.876Z,96.75
2023-02-02T05:08:52.802Z,96.50
2023-02-02T05:09:53.793Z,96.19
2023-02-02T05:10:52.811Z,96.08
2023-02-02T05:11:52.857Z,96.34
2023-02-02T05:12:52.776Z,96.50
2023-02-02T05:13:52.798Z,96.34
2023-02-02T05:14:52.762Z,96.14
2023-02-02T05:15:52.778Z,96.45
2023-02-02T05:16:52.833Z,96.14
2023-02-02T05:17:52.755Z,95.89
2023-02-02T05:18:52.755Z,95.57
2023-02-02T05:19:52.810Z,95.68
2023-02-02T05:20:52.722Z,95.68
2023-02-02T05:21:52.766Z,95.57
2023-02-02T05:22:52.703Z,95.37
2023-02-02T05:23:52.762Z,95.64
2023-02-02T05:24:52.747Z,95.06
2023-02-02T05:25:52.689Z,94.60
2023-02-02T05:26:52.807Z,95.01
2023-02-02T05:27:52.714Z,94.39
2023-02-02T05:28:52.683Z,94.39
2023-02-02T05:29:52.692Z,94.70
2023-02-02T05:30:52.705Z,94.49
2023-02-02T05:31:52.681Z,94.49
2023-02-02T05:32:52.822Z,94.49
2023-02-02T05:33:52.635Z,94.49
2023-02-02T05:34:52.633Z,94.60
2023-02-02T05:35:52.663Z,94.60
2023-02-02T05:36:52.631Z,94.60
2023-02-02T05:37:53.620Z,94.60
2023-02-02T05:38:52.594Z,94.49
2023-02-02T05:39:52.619Z,94.29
2023-02-02T05:40:52.653Z,94.70
2023-02-02T05:41:52.594Z,94.49
2023-02-02T05:42:52.586Z,94.49
2023-02-02T05:43:52.561Z,95.01
2023-02-02T05:44:52.594Z,95.01
2023-02-02T05:45:52.586Z,94.87
2023-02-02T05:46:52.588Z,94.91
2023-02-02T05:47:52.546Z,94.39
2023-02-02T05:48:52.561Z,94.70
2023-02-02T05:49:52.675Z,94.81
2023-02-02T05:50:52.527Z,94.60
2023-02-02T05:51:52.570Z,94.81
2023-02-02T05:52:52.560Z,95.01
2023-02-02T05:53:52.529Z,95.22
2023-02-02T05:54:52.553Z,95.32
2023-02-02T05:55:52.517Z,95.32
2023-02-02T05:56:52.506Z,95.32
2023-02-02T05:57:52.533Z,94.81
2023-02-02T05:58:52.484Z,94.60
2023-02-02T05:59:52.478Z,94.91
2023-02-02T06:00:53.974Z,94.60
2023-02-02T06:01:52.507Z,94.49
2023-02-02T06:02:52.570Z,94.45
2023-02-02T06:03:52.543Z,94.29
2023-02-02T06:04:52.470Z,94.49
2023-02-02T06:05:52.440Z,94.35
2023-02-02T06:06:52.476Z,94.56
2023-02-02T06:07:52.412Z,94.04
2023-02-02T06:08:52.414Z,93.83
2023-02-02T06:09:52.447Z,94.14
2023-02-02T06:10:52.467Z,94.18
2023-02-02T06:11:52.484Z,93.98
2023-02-02T06:12:52.395Z,94.08
2023-02-02T06:13:52.386Z,94.49
2023-02-02T06:14:52.515Z,94.70
2023-02-02T06:15:52.483Z,94.95
2023-02-02T06:16:52.434Z,95.64
2023-02-02T06:17:52.415Z,95.32
2023-02-02T06:18:52.365Z,95.74
2023-02-02T06:19:52.342Z,95.53
2023-02-02T06:20:52.356Z,95.22
2023-02-02T06:21:52.378Z,95.32
2023-02-02T06:22:52.392Z,95.12
2023-02-02T06:23:52.317Z,94.60
2023-02-02T06:24:52.375Z,94.81
2023-02-02T06:25:52.307Z,95.01
2023-02-02T06:26:52.326Z,94.49
2023-02-02T06:27:52.334Z,94.49
2023-02-02T06:28:52.297Z,94.39
2023-02-02T06:29:52.276Z,94.49
2023-02-02T06:30:52.317Z,94.45
2023-02-02T06:31:52.506Z,94.29
2023-02-02T06:32:52.309Z,94.81
2023-02-02T06:33:52.343Z,94.60
2023-02-02T06:34:52.244Z,94.81
2023-02-02T06:35:52.225Z,94.49
2023-02-02T06:36:52.266Z,94.60
2023-02-02T06:37:52.252Z,94.81
2023-02-02T06:38:52.223Z,95.01
2023-02-02T06:39:52.227Z,95.12
2023-02-02T06:40:52.225Z,95.12
2023-02-02T06:41:52.290Z,94.70
2023-02-02T06:42:52.217Z,94.81
2023-02-02T06:43:52.244Z,94.81
2023-02-02T06:44:52.207Z,95.78
2023-02-02T06:45:52.182Z,95.32
2023-02-02T06:46:52.221Z,95.37
2023-02-02T06:47:52.193Z,95.37
2023-02-02T06:48:52.211Z,95.06
2023-02-02T06:49:52.204Z,95.57
2023-02-02T06:50:52.190Z,95.53
2023-02-02T06:51:52.196Z,95.68
2023-02-02T06:52:52.168Z,95.47
2023-02-02T06:53:52.132Z,95.32
2023-02-02T06:54:52.212Z,95.64
2023-02-02T06:55:52.204Z,95.32
2023-02-02T06:56:52.105Z,95.12
2023-02-02T06:57:52.112Z,95.43
2023-02-02T06:58:52.125Z,95.37
2023-02-02T06:59:52.143Z,94.89
2023-02-02T07:00:52.138Z,95.57
2023-02-02T07:01:52.241Z,95.62
2023-02-02T07:02:52.109Z,96.39
2023-02-02T07:03:52.071Z,96.97
2023-02-02T07:04:52.106Z,97.38
2023-02-02T07:05:52.103Z,97.38
2023-02-02T07:06:52.192Z,96.66
2023-02-02T07:07:52.068Z,97.38
2023-02-02T07:09:02.124Z,97.33
2023-02-02T07:09:58.057Z,97.80
2023-02-02T07:11:14.363Z,97.85
2023-02-02T07:11:53.109Z,97.64
2023-02-02T07:12:52.019Z,97.59
2023-02-02T07:13:52.042Z,97.49
2023-02-02T07:14:52.041Z,97.69
2023-02-02T07:15:52.091Z,97.59
2023-02-02T07:16:52.051Z,97.80
2023-02-02T07:17:52.008Z,97.07
2023-02-02T07:18:52.070Z,98.00
2023-02-02T07:19:51.961Z,97.28
2023-02-02T07:20:52.000Z,97.24
2023-02-02T07:21:52.010Z,97.28
2023-02-02T07:22:51.994Z,97.07
2023-02-02T07:23:51.959Z,96.14
2023-02-02T07:24:51.932Z,96.34
2023-02-02T07:25:51.952Z,96.55
2023-02-02T07:26:52.051Z,96.34
2023-02-02T07:27:51.948Z,96.66
2023-02-02T07:28:51.949Z,96.39
2023-02-02T07:29:51.914Z,96.66
2023-02-02T07:30:52.072Z,96.55
2023-02-02T07:31:51.949Z,96.45
2023-02-02T07:32:51.941Z,96.45
2023-02-02T07:33:51.940Z,96.24
2023-02-02T07:34:51.895Z,96.34
2023-02-02T07:35:51.956Z,96.41
2023-02-02T07:36:51.948Z,96.55
2023-02-02T07:37:51.880Z,96.24
2023-02-02T07:38:51.868Z,96.30
2023-02-02T07:39:51.860Z,96.51
2023-02-02T07:40:51.924Z,95.47
2023-02-02T07:41:51.847Z,96.09
2023-02-02T07:42:51.834Z,95.41
2023-02-02T07:43:51.847Z,95.68
2023-02-02T07:44:52.016Z,95.37
2023-02-02T07:45:51.839Z,95.68
2023-02-02T07:46:51.865Z,95.16
2023-02-02T07:47:51.803Z,95.37
2023-02-02T07:48:51.796Z,95.37
2023-02-02T07:49:51.849Z,95.53
2023-02-02T07:50:51.796Z,95.01
2023-02-02T07:51:51.848Z,95.01
2023-02-02T07:52:51.822Z,95.01
2023-02-02T07:53:51.814Z,94.91
2023-02-02T07:54:57.669Z,94.91
2023-02-02T07:55:52.782Z,95.01
2023-02-02T07:56:51.815Z,94.81
2023-02-02T07:57:51.774Z,94.49
2023-02-02T07:58:51.814Z,94.39
2023-02-02T07:59:51.916Z,94.39
2023-02-02T08:00:51.897Z,94.29
2023-02-02T08:01:51.799Z,94.39
2023-02-02T08:02:51.766Z,94.29
2023-02-02T08:03:51.766Z,94.49
2023-02-02T08:04:51.792Z,94.18
2023-02-02T08:05:51.724Z,94.18
2023-02-02T08:06:51.715Z,93.98
2023-02-02T08:07:51.726Z,93.98
2023-02-02T08:08:51.730Z,93.98
2023-02-02T08:09:51.665Z,94.08
2023-02-02T08:10:51.726Z,94.29
2023-02-02T08:11:51.672Z,94.08
2023-02-02T08:12:51.796Z,94.54
2023-02-02T08:13:51.660Z,95.06
2023-02-02T08:14:51.652Z,95.06
2023-02-02T08:15:51.699Z,95.37
2023-02-02T08:16:51.665Z,96.03
2023-02-02T08:17:51.681Z,97.38
2023-02-02T08:18:51.686Z,98.47
2023-02-02T08:19:51.633Z,98.68
2023-02-02T08:20:51.648Z,98.68
2023-02-02T08:21:51.632Z,99.51
2023-02-02T08:22:51.615Z,99.40
2023-02-02T08:23:51.644Z,99.09
2023-02-02T08:24:51.609Z,99.04
2023-02-02T08:25:51.599Z,99.25
2023-02-02T08:26:51.624Z,99.15
2023-02-02T08:27:51.712Z,99.25
2023-02-02T08:28:51.638Z,99.04
2023-02-02T08:29:51.609Z,98.69
2023-02-02T08:30:51.604Z,98.58
2023-02-02T08:31:51.614Z,98.58
2023-02-02T08:32:51.565Z,97.86
2023-02-02T08:33:51.592Z,97.49
2023-02-02T08:34:51.527Z,97.69
2023-02-02T08:35:51.530Z,97.86
2023-02-02T08:36:51.522Z,97.65
2023-02-02T08:37:51.496Z,97.86
2023-02-02T08:38:51.540Z,97.75
2023-02-02T08:39:51.543Z,97.29
2023-02-02T08:40:51.490Z,97.19
2023-02-02T08:41:51.479Z,96.36
2023-02-02T08:42:51.492Z,95.78
2023-02-02T08:43:51.454Z,95.64
2023-02-02T08:46:00.250Z,96.05
2023-02-02T08:46:03.050Z,95.95
2023-02-02T08:46:52.525Z,95.74
2023-02-02T08:48:02.004Z,95.84
2023-02-02T08:48:53.445Z,95.43
2023-02-02T08:49:51.451Z,95.95
2023-02-02T08:50:51.460Z,95.95
2023-02-02T08:51:51.437Z,95.53
2023-02-02T08:52:51.438Z,95.01
2023-02-02T08:53:51.449Z,94.60
2023-02-02T08:54:51.392Z,95.12
2023-02-02T08:55:51.388Z,94.70
2023-02-02T08:56:51.383Z,94.81
2023-02-02T08:57:51.418Z,95.01
2023-02-02T08:58:51.448Z,94.49
2023-02-02T08:59:51.382Z,94.60
2023-02-02T09:00:51.423Z,94.39
2023-02-02T09:01:51.539Z,94.49
2023-02-02T09:02:51.366Z,94.39
2023-02-02T09:03:51.380Z,94.39
2023-02-02T09:04:51.361Z,94.70
2023-02-02T09:05:51.348Z,94.49
2023-02-02T09:06:51.367Z,94.60
2023-02-02T09:07:51.313Z,94.49
2023-02-02T09:08:51.325Z,94.18
2023-02-02T09:09:52.305Z,94.18
2023-02-02T09:10:51.385Z,93.98
2023-02-02T09:11:51.357Z,93.98
2023-02-02T09:12:51.284Z,94.18
2023-02-02T09:13:51.292Z,93.77
2023-02-02T09:14:51.275Z,93.91
2023-02-02T09:15:51.246Z,93.77
2023-02-02T09:16:51.385Z,93.91
2023-02-02T09:17:51.249Z,94.02
2023-02-02T09:18:51.283Z,93.77
2023-02-02T09:19:51.245Z,94.08
2023-02-02T09:20:51.215Z,94.08
2023-02-02T09:21:51.238Z,93.98
2023-02-02T09:22:51.301Z,93.77
2023-02-02T09:23:51.273Z,93.56
2023-02-02T09:24:51.208Z,93.35
2023-02-02T09:25:51.224Z,93.46
2023-02-02T09:26:51.216Z,93.56
2023-02-02T09:27:51.239Z,93.77
2023-02-02T09:28:51.175Z,93.66
2023-02-02T09:29:51.181Z,93.81
2023-02-02T09:30:51.196Z,93.98
2023-02-02T09:31:51.215Z,94.39
2023-02-02T09:32:51.245Z,94.95
2023-02-02T09:33:51.168Z,94.43
2023-02-02T09:34:52.191Z,94.89
2023-02-02T09:35:51.132Z,95.47
2023-02-02T09:36:51.130Z,95.57
2023-02-02T09:37:51.171Z,96.20
2023-02-02T09:38:51.220Z,96.30
2023-02-02T09:39:51.153Z,96.15
2023-02-02T09:40:51.128Z,95.89
2023-02-02T09:41:51.108Z,96.15
2023-02-02T09:42:51.091Z,95.95
2023-02-02T09:43:51.144Z,95.53
2023-02-02T09:44:51.083Z,95.43
2023-02-02T09:45:51.141Z,95.49
2023-02-02T09:46:51.072Z,95.43
2023-02-02T09:47:51.055Z,95.49
2023-02-02T09:48:51.117Z,95.59
2023-02-02T09:49:51.170Z,95.07
2023-02-02T09:50:51.052Z,94.56
2023-02-02T09:51:51.066Z,94.66
2023-02-02T09:52:51.046Z,94.35
2023-02-02T09:53:55.555Z,94.45
2023-02-02T09:54:53.054Z,94.45
2023-02-02T09:55:51.092Z,94.24
2023-02-02T09:56:51.022Z,93.93
2023-02-02T09:57:51.011Z,94.10
2023-02-02T09:58:51.005Z,94.10
2023-02-02T09:59:51.001Z,93.99
2023-02-02T10:00:51.044Z,93.89
2023-02-02T10:01:51.032Z,93.99
2023-02-02T10:02:50.983Z,93.58
2023-02-02T10:03:51.034Z,93.64
2023-02-02T10:04:50.981Z,93.48
2023-02-02T10:05:50.976Z,93.37
2023-02-02T10:06:50.992Z,93.27
2023-02-02T10:07:50.950Z,93.68
2023-02-02T10:08:50.963Z,93.43
2023-02-02T10:09:50.940Z,93.27
2023-02-02T10:10:50.926Z,93.12
2023-02-02T10:11:51.030Z,93.12
2023-02-02T10:12:50.924Z,93.06
2023-02-02T10:13:50.920Z,92.91
2023-02-02T10:14:51.081Z,93.02
2023-02-02T10:15:50.943Z,93.02
2023-02-02T10:16:50.959Z,92.91
2023-02-02T10:17:51.889Z,92.85
2023-02-02T10:18:50.885Z,92.76
2023-02-02T10:19:50.883Z,93.10
2023-02-02T10:20:50.912Z,94.54
2023-02-02T10:21:50.964Z,95.93
2023-02-02T10:22:50.862Z,97.28
2023-02-02T10:23:50.882Z,98.16
2023-02-02T10:24:50.866Z,98.88
2023-02-02T10:25:50.852Z,99.61
2023-02-02T10:26:50.970Z,99.82
2023-02-02T10:27:50.833Z,99.61
2023-02-02T10:28:50.851Z,99.30
2023-02-02T10:29:50.895Z,98.68
2023-02-02T10:30:50.956Z,98.88
2023-02-02T10:31:50.938Z,99.09
2023-02-02T10:32:50.817Z,99.66
2023-02-02T10:33:50.808Z,98.68
2023-02-02T10:34:55.584Z,99.61
2023-02-02T10:35:51.802Z,99.71
2023-02-02T10:36:50.802Z,99.76
2023-02-02T10:37:50.828Z,99.99
2023-02-02T10:38:50.797Z,99.34
2023-02-02T10:39:50.777Z,99.96
2023-02-02T10:40:50.798Z,99.99
2023-02-02T10:41:50.749Z,99.91
2023-02-02T10:42:50.772Z,99.99
2023-02-02T10:43:50.737Z,99.99
2023-02-02T10:44:50.775Z,99.99
2023-02-02T10:45:50.820Z,99.99
2023-02-02T10:46:50.888Z,99.99
2023-02-02T10:47:50.703Z,99.99
2023-02-02T10:48:50.737Z,99.99
2023-02-02T10:49:56.020Z,99.99
2023-02-02T10:50:52.691Z,99.99
2023-02-02T10:51:50.697Z,99.86
2023-02-02T10:52:50.725Z,99.96
2023-02-02T10:53:50.723Z,99.99
2023-02-02T10:54:57.323Z,99.86
2023-02-02T10:55:52.666Z,99.96
2023-02-02T10:56:50.654Z,99.40
2023-02-02T10:57:50.663Z,99.82
2023-02-02T10:58:50.748Z,99.34
2023-02-02T10:59:50.696Z,99.44
2023-02-02T11:00:50.625Z,99.55
2023-02-02T11:01:50.676Z,98.82
2023-02-02T11:02:50.651Z,99.03
2023-02-02T11:03:50.603Z,98.72
2023-02-02T11:04:50.780Z,99.03
2023-02-02T11:05:50.609Z,99.34
2023-02-02T11:06:50.601Z,98.66
2023-02-02T11:07:50.756Z,99.18
2023-02-02T11:08:50.597Z,99.38
2023-02-02T11:09:50.692Z,98.86
2023-02-02T11:10:50.575Z,98.86
2023-02-02T11:11:50.595Z,99.49
2023-02-02T11:12:50.558Z,99.49
2023-02-02T11:13:50.564Z,99.59
2023-02-02T11:14:50.539Z,99.80
2023-02-02T11:15:50.642Z,99.80
2023-02-02T11:16:50.622Z,99.70
2023-02-02T11:17:50.521Z,99.38
2023-02-02T11:18:50.571Z,99.80
2023-02-02T11:19:50.557Z,99.38
2023-02-02T11:20:50.548Z,99.80
2023-02-02T11:21:50.534Z,99.99
2023-02-02T11:22:50.504Z,99.70
2023-02-02T11:23:50.511Z,99.80
2023-02-02T11:24:50.524Z,99.49
2023-02-02T11:25:50.467Z,99.96
2023-02-02T11:26:50.568Z,99.65
2023-02-02T11:27:50.507Z,99.76
2023-02-02T11:28:50.458Z,99.76
2023-02-02T11:29:50.470Z,98.82
2023-02-02T11:30:50.582Z,98.72
2023-02-02T11:31:50.518Z,99.13
2023-02-02T11:32:50.428Z,99.76
2023-02-02T11:33:51.435Z,98.93
2023-02-02T11:34:50.420Z,98.72
2023-02-02T11:35:50.416Z,99.28
2023-02-02T11:36:50.475Z,99.55
2023-02-02T11:37:50.394Z,99.59
2023-02-02T11:38:50.416Z,99.99
2023-02-02T11:39:52.483Z,99.86
2023-02-02T11:40:51.393Z,99.65
2023-02-02T11:41:50.382Z,99.65
2023-02-02T11:42:50.383Z,98.93
2023-02-02T11:43:50.523Z,98.61
2023-02-02T11:44:50.363Z,98.47
2023-02-02T11:45:50.356Z,98.82
2023-02-02T11:46:50.385Z,98.82
2023-02-02T11:47:50.400Z,98.72
2023-02-02T11:48:50.365Z,99.55
2023-02-02T11:49:50.340Z,99.96
2023-02-02T11:50:50.339Z,99.76
2023-02-02T11:51:50.325Z,99.91
2023-02-02T11:52:50.372Z,99.70
2023-02-02T11:53:50.322Z,99.99
2023-02-02T11:54:50.287Z,99.38
2023-02-02T11:55:50.344Z,99.91
2023-02-02T11:56:50.290Z,99.99
2023-02-02T11:57:50.277Z,99.49
2023-02-02T11:58:50.328Z,99.80
2023-02-02T11:59:50.293Z,99.99
2023-02-02T12:00:50.279Z,99.99
2023-02-02T12:01:50.255Z,99.99
2023-02-02T12:02:50.257Z,99.59
2023-02-02T12:03:50.327Z,99.99
2023-02-02T12:04:50.314Z,99.70
2023-02-02T12:05:50.250Z,99.74
2023-02-02T12:06:50.239Z,99.80
2023-02-02T12:07:50.214Z,99.99
2023-02-02T12:08:50.239Z,99.91
2023-02-02T12:09:50.237Z,99.99
2023-02-02T12:10:50.219Z,99.74
2023-02-02T12:11:50.249Z,99.99
2023-02-02T12:12:50.193Z,99.80
2023-02-02T12:13:50.164Z,99.99
2023-02-02T12:14:50.255Z,99.99
2023-02-02T12:15:50.167Z,99.95
2023-02-02T12:16:50.167Z,99.70
2023-02-02T12:17:50.163Z,99.91
2023-02-02T12:18:50.150Z,99.74
2023-02-02T12:19:50.201Z,99.80
2023-02-02T12:20:50.126Z,99.91
2023-02-02T12:21:50.147Z,99.80
2023-02-02T12:22:50.143Z,99.59
2023-02-02T12:23:50.103Z,99.70
2023-02-02T12:24:50.150Z,99.49
2023-02-02T12:25:50.155Z,99.49
2023-02-02T12:26:50.179Z,99.49
2023-02-02T12:27:50.084Z,99.70
2023-02-02T12:28:51.171Z,99.07
2023-02-02T12:29:50.106Z,98.50
2023-02-02T12:30:50.146Z,98.81
2023-02-02T12:31:50.102Z,99.12
2023-02-02T12:32:50.070Z,98.81
2023-02-02T12:33:50.045Z,98.66
2023-02-02T12:34:50.048Z,98.91
2023-02-02T12:35:50.153Z,99.59
2023-02-02T12:36:50.042Z,99.49
2023-02-02T12:37:50.043Z,98.81
2023-02-02T12:38:50.041Z,98.76
2023-02-02T12:39:50.036Z,99.74
2023-02-02T12:40:50.126Z,99.54
2023-02-02T12:41:50.103Z,99.91
2023-02-02T12:42:50.088Z,99.07
2023-02-02T12:43:50.037Z,99.91
2023-02-02T12:44:50.005Z,99.99
2023-02-02T12:45:50.063Z,99.99
2023-02-02T12:46:49.988Z,99.54
2023-02-02T12:47:50.007Z,99.95
2023-02-02T12:48:49.988Z,99.54
2023-02-02T12:49:49.969Z,99.99
2023-02-02T12:50:49.947Z,99.95
2023-02-02T12:51:49.983Z,99.64
2023-02-02T12:52:49.944Z,99.99